Time;durP1;ratioP1;P1;durP2;ratioP2;P2;SDS_P1;SDS_P2;PMS_P1;PMS_P2;Temp;Humidity;BMP_temperature;BMP_pressure;BME280_temperature;BME280_humidity;BME280_pressure;Samples;Min_cycle;Max_cycle;Signal;HPM_P1;HPM_P2
2022/08/02 00:01:26;;;;;;;0.30;0.30;;;19.40;99.90;;;;;;5073258;28;20130;-77
2022/08/02 00:03:52;;;;;;;0.45;0.45;;;19.40;99.90;;;;;;5072715;28;20024;-76
2022/08/02 00:06:18;;;;;;;0.20;0.20;;;19.50;99.90;;;;;;5073822;28;20020;-77
2022/08/02 00:08:43;;;;;;;4.57;0.57;;;19.60;99.90;;;;;;5073341;28;20025;-77
2022/08/02 00:11:09;;;;;;;0.10;0.10;;;19.60;99.90;;;;;;5073775;28;20017;-77
2022/08/02 00:13:35;;;;;;;0.45;0.45;;;19.60;99.90;;;;;;5074637;28;20101;-77
2022/08/02 00:16:01;;;;;;;0.60;0.60;;;19.80;99.90;;;;;;5073855;28;20028;-77
2022/08/02 00:18:27;;;;;;;0.10;0.10;;;19.80;99.90;;;;;;5073099;28;20024;-77
2022/08/02 00:20:53;;;;;;;0.93;0.47;;;19.90;99.90;;;;;;5055895;28;20361;-77
2022/08/02 00:23:19;;;;;;;0.10;0.10;;;20.00;99.90;;;;;;5074305;28;20029;-77
2022/08/02 00:25:44;;;;;;;0.10;0.10;;;19.90;99.90;;;;;;5074062;28;20032;-77
2022/08/02 00:28:10;;;;;;;0.10;0.10;;;19.90;99.90;;;;;;5077525;28;20025;-77
2022/08/02 00:30:37;;;;;;;0.10;0.10;;;19.90;99.90;;;;;;5076650;28;20107;-77
2022/08/02 00:33:04;;;;;;;0.50;0.50;;;19.70;99.90;;;;;;5078447;28;20345;-77
2022/08/02 00:35:30;;;;;;;0.25;0.25;;;19.70;99.90;;;;;;5078199;28;20066;-76
2022/08/02 00:37:56;;;;;;;0.40;0.40;;;19.50;99.90;;;;;;5078073;28;20020;-76
2022/08/02 00:40:23;;;;;;;1.25;0.43;;;19.60;99.90;;;;;;5078161;28;20027;-76
2022/08/02 00:43:03;;;;;;;0.50;0.50;;;19.50;99.90;;;;;;5077678;28;20108;-77
2022/08/02 00:45:30;;;;;;;0.50;0.50;;;19.50;99.90;;;;;;5076687;28;20111;-77
2022/08/02 00:47:56;;;;;;;0.10;0.10;;;19.50;99.90;;;;;;5076441;28;20081;-77
2022/08/02 00:50:22;;;;;;;0.10;0.10;;;19.50;99.90;;;;;;5076740;28;20021;-76
2022/08/02 00:52:47;;;;;;;1.75;1.65;;;19.70;99.90;;;;;;5060208;28;20479;-77
2022/08/02 00:55:13;;;;;;;1.75;0.57;;;20.00;99.90;;;;;;5077990;28;20395;-77
2022/08/02 00:57:39;;;;;;;1.00;0.43;;;20.20;99.90;;;;;;5075835;28;20028;-75
2022/08/02 01:00:06;;;;;;;1.15;0.85;;;20.20;99.90;;;;;;5073950;28;20028;-75
2022/08/02 01:02:32;;;;;;;0.20;0.20;;;19.90;99.90;;;;;;5058005;28;20032;-77
2022/08/02 01:04:57;;;;;;;1.02;0.80;;;19.60;99.90;;;;;;5077149;28;20182;-77
2022/08/02 01:07:23;;;;;;;0.40;0.40;;;19.20;99.90;;;;;;5075687;28;20434;-76
2022/08/02 01:09:49;;;;;;;0.32;0.32;;;19.00;99.90;;;;;;5077048;28;20020;-77
2022/08/02 01:12:15;;;;;;;1.90;0.75;;;18.90;99.90;;;;;;5076891;28;20044;-77
2022/08/02 01:14:48;;;;;;;0.52;0.45;;;18.90;99.90;;;;;;5076832;28;20028;-77
2022/08/02 01:17:35;;;;;;;0.40;0.40;;;19.00;99.90;;;;;;5074821;28;20025;-74
2022/08/02 01:20:12;;;;;;;0.30;0.30;;;19.10;99.90;;;;;;5076281;28;20487;-77
2022/08/02 01:23:12;;;;;;;1.13;0.68;;;19.00;99.90;;;;;;5058544;28;20115;-76
2022/08/02 01:26:02;;;;;;;0.10;0.10;;;18.90;99.90;;;;;;5076249;28;20103;-77
2022/08/02 01:28:39;;;;;;;0.20;0.20;;;18.80;99.90;;;;;;5075846;28;20020;-77
2022/08/02 01:31:26;;;;;;;0.30;0.30;;;19.00;99.90;;;;;;5076577;28;20029;-77
2022/08/02 01:34:21;;;;;;;0.28;0.28;;;18.90;99.90;;;;;;5075709;28;20074;-77
2022/08/02 01:36:59;;;;;;;0.20;0.20;;;18.90;99.90;;;;;;5068393;28;20051;-77
2022/08/02 01:39:28;;;;;;;0.63;0.63;;;19.00;99.90;;;;;;5076796;28;20052;-77
2022/08/02 01:41:56;;;;;;;0.00;0.00;;;19.20;99.90;;;;;;5075362;28;20020;-77
2022/08/02 01:44:24;;;;;;;0.10;0.10;;;19.30;99.90;;;;;;5075830;28;20039;-77
2022/08/02 01:46:52;;;;;;;0.35;0.30;;;19.50;99.90;;;;;;5073944;28;20025;-75
2022/08/02 01:49:21;;;;;;;0.10;0.10;;;19.90;99.90;;;;;;5073334;28;20392;-75
2022/08/02 01:54:37;;;;;;;0.10;0.10;;;20.10;99.90;;;;;;5074516;28;20108;-74
2022/08/02 01:57:05;;;;;;;0.10;0.10;;;20.10;99.90;;;;;;5055587;28;20028;-76
2022/08/02 01:59:32;;;;;;;0.10;0.10;;;20.10;99.90;;;;;;5074233;28;20042;-75
2022/08/02 02:01:59;;;;;;;0.10;0.10;;;20.10;99.90;;;;;;5074145;28;20035;-75
2022/08/02 02:04:28;;;;;;;0.28;0.20;;;20.10;99.90;;;;;;5072811;28;20020;-76
2022/08/02 02:06:56;;;;;;;0.10;0.10;;;20.10;99.90;;;;;;5073895;28;20031;-76
2022/08/02 02:09:27;;;;;;;0.10;0.10;;;20.30;99.90;;;;;;5072849;28;20021;-76
2022/08/02 02:11:55;;;;;;;0.10;0.10;;;20.40;99.90;;;;;;5073601;28;20017;-75
2022/08/02 02:14:21;;;;;;;0.10;0.10;;;20.40;99.90;;;;;;5072511;28;20033;-75
2022/08/02 02:16:48;;;;;;;0.10;0.10;;;20.60;99.90;;;;;;5073375;28;20040;-76
2022/08/02 02:19:17;;;;;;;0.10;0.10;;;20.70;99.90;;;;;;5073628;28;20017;-76
2022/08/02 02:21:43;;;;;;;0.10;0.10;;;20.60;99.90;;;;;;5073442;28;20243;-76
2022/08/02 02:24:10;;;;;;;0.10;0.10;;;20.50;99.90;;;;;;5055681;28;20036;-75
2022/08/02 02:26:37;;;;;;;0.00;0.00;;;20.30;99.90;;;;;;5071935;28;20036;-75
2022/08/02 02:29:07;;;;;;;0.10;0.10;;;20.10;99.90;;;;;;5073458;28;20063;-76
2022/08/02 02:31:43;;;;;;;0.10;0.10;;;20.00;99.90;;;;;;5072391;28;20025;-76
2022/08/02 02:34:36;;;;;;;0.10;0.10;;;19.90;99.90;;;;;;5072143;28;20051;-76
2022/08/02 02:37:04;;;;;;;0.10;0.10;;;20.10;99.90;;;;;;5051600;28;20037;-75
2022/08/02 02:39:32;;;;;;;0.10;0.10;;;20.30;99.90;;;;;;5073219;28;20028;-76
2022/08/02 02:42:02;;;;;;;0.10;0.10;;;20.20;99.90;;;;;;5071828;28;20115;-75
2022/08/02 02:44:29;;;;;;;0.10;0.10;;;20.00;99.90;;;;;;5071784;28;20028;-75
2022/08/02 02:46:56;;;;;;;0.10;0.10;;;20.10;99.90;;;;;;5072674;28;20355;-76
2022/08/02 02:49:24;;;;;;;0.10;0.10;;;20.00;99.90;;;;;;5070953;28;20533;-76
2022/08/02 02:51:50;;;;;;;0.15;0.15;;;19.80;99.90;;;;;;5072461;28;20021;-76
2022/08/02 02:54:17;;;;;;;0.10;0.10;;;19.80;99.90;;;;;;5087479;22;20047;-76
2022/08/02 02:56:44;;;;;;;0.00;0.00;;;19.60;99.90;;;;;;5075082;28;20047;-74
2022/08/02 02:59:13;;;;;;;0.35;0.35;;;19.50;99.90;;;;;;5091295;28;20023;-74
2022/08/02 03:01:39;;;;;;;0.20;0.20;;;19.40;99.90;;;;;;5091692;28;20025;-74
2022/08/02 03:04:08;;;;;;;0.75;0.45;;;19.30;99.90;;;;;;5093108;28;20020;-74
2022/08/02 03:06:36;;;;;;;0.10;0.10;;;19.30;99.90;;;;;;5092648;28;20112;-74
2022/08/02 03:09:03;;;;;;;0.10;0.10;;;19.20;99.90;;;;;;5092717;28;20039;-74
2022/08/02 03:11:30;;;;;;;0.10;0.10;;;19.30;99.90;;;;;;5091614;28;20097;-74
2022/08/02 03:13:58;;;;;;;0.10;0.10;;;19.20;99.90;;;;;;5092608;28;20491;-75
2022/08/02 03:16:27;;;;;;;0.03;0.03;;;19.00;99.90;;;;;;5092662;28;20020;-75
2022/08/02 03:18:54;;;;;;;0.10;0.10;;;19.00;99.90;;;;;;5092439;28;20077;-74
2022/08/02 03:21:20;;;;;;;0.10;0.10;;;19.00;99.90;;;;;;5092918;28;20024;-74
2022/08/02 03:23:47;;;;;;;0.10;0.10;;;19.00;99.90;;;;;;5091272;28;20107;-74
2022/08/02 03:26:13;;;;;;;0.70;0.45;;;18.90;99.90;;;;;;5090918;28;20035;-74
2022/08/02 03:28:39;;;;;;;0.10;0.10;;;18.90;99.90;;;;;;5092447;28;20453;-74
2022/08/02 03:31:05;;;;;;;0.10;0.10;;;18.70;99.90;;;;;;5092481;28;20077;-74
2022/08/02 03:33:32;;;;;;;0.10;0.10;;;18.80;99.90;;;;;;5092366;28;20040;-75
2022/08/02 03:36:07;;;;;;;0.10;0.10;;;19.00;99.90;;;;;;5074005;28;20047;-75
2022/08/02 03:38:35;;;;;;;0.52;0.52;;;19.10;99.90;;;;;;5092242;28;20301;-75
2022/08/02 03:41:02;;;;;;;0.10;0.10;;;18.90;99.90;;;;;;5090947;28;20031;-74
2022/08/02 03:43:29;;;;;;;0.10;0.10;;;18.90;99.90;;;;;;5092250;28;20024;-74
2022/08/02 03:45:56;;;;;;;0.10;0.10;;;19.00;99.90;;;;;;5092128;28;20028;-75
2022/08/02 03:48:23;;;;;;;0.10;0.10;;;19.10;99.90;;;;;;5092034;28;20468;-75
2022/08/02 03:50:50;;;;;;;0.10;0.10;;;19.20;99.90;;;;;;5090924;28;20471;-75
2022/08/02 03:53:16;;;;;;;0.20;0.20;;;19.50;99.90;;;;;;5092065;28;20085;-75
2022/08/02 03:55:43;;;;;;;0.10;0.10;;;19.40;99.90;;;;;;5090553;28;20432;-75
2022/08/02 03:58:19;;;;;;;0.10;0.10;;;19.50;99.90;;;;;;5091805;28;20430;-75
2022/08/02 04:00:45;;;;;;;0.10;0.10;;;19.50;99.90;;;;;;5092178;28;20031;-75
2022/08/02 04:03:11;;;;;;;0.00;0.00;;;19.60;99.90;;;;;;5073929;28;20479;-75
2022/08/02 04:05:37;;;;;;;0.10;0.10;;;19.50;99.90;;;;;;5091736;28;20077;-75
2022/08/02 04:08:03;;;;;;;0.10;0.10;;;19.50;99.90;;;;;;5090427;28;20483;-75
2022/08/02 04:10:29;;;;;;;0.10;0.10;;;19.70;99.90;;;;;;5091940;28;20054;-75
2022/08/02 04:12:55;;;;;;;0.10;0.10;;;19.60;99.90;;;;;;5091808;28;20062;-75
2022/08/02 04:15:22;;;;;;;0.00;0.00;;;19.70;99.90;;;;;;5090607;28;20039;-75
2022/08/02 04:17:55;;;;;;;0.20;0.20;;;19.80;99.90;;;;;;5091807;28;20025;-75
2022/08/02 04:20:27;;;;;;;0.10;0.10;;;19.80;99.90;;;;;;5091985;28;20097;-75
2022/08/02 04:23:13;;;;;;;0.10;0.10;;;19.70;99.90;;;;;;5092040;28;20051;-75
2022/08/02 04:25:40;;;;;;;0.10;0.10;;;19.70;99.90;;;;;;5091530;28;20024;-76
2022/08/02 04:28:07;;;;;;;0.10;0.10;;;19.90;99.90;;;;;;5091527;28;20440;-75
2022/08/02 04:30:33;;;;;;;0.10;0.10;;;20.20;99.90;;;;;;5091615;28;20017;-75
2022/08/02 04:32:59;;;;;;;0.10;0.10;;;20.20;99.90;;;;;;5091618;28;20020;-76
2022/08/02 04:35:26;;;;;;;0.10;0.10;;;20.40;99.90;;;;;;5073475;28;20053;-75
2022/08/02 04:37:52;;;;;;;0.10;0.10;;;20.50;99.90;;;;;;5091571;28;20024;-75
2022/08/02 04:40:18;;;;;;;0.10;0.10;;;20.50;99.90;;;;;;5090381;28;20028;-75
2022/08/02 04:42:43;;;;;;;0.10;0.10;;;20.60;99.90;;;;;;5091703;28;20027;-75
2022/08/02 04:45:10;;;;;;;0.10;0.10;;;20.50;99.90;;;;;;5089946;28;20055;-76
2022/08/02 04:47:36;;;;;;;0.10;0.10;;;20.60;99.90;;;;;;5090505;28;20027;-75
2022/08/02 04:50:02;;;;;;;0.00;0.00;;;20.50;99.90;;;;;;5091494;28;20016;-75
2022/08/02 04:52:28;;;;;;;0.08;0.08;;;20.50;99.90;;;;;;5090248;28;20021;-76
2022/08/02 04:54:54;;;;;;;0.10;0.10;;;20.50;99.90;;;;;;5091332;28;20380;-75
2022/08/02 05:00:06;;;;;;;0.00;0.00;;;20.40;99.90;;;;;;5091486;28;20024;-75
2022/08/02 05:02:32;;;;;;;0.10;0.10;;;20.30;99.90;;;;;;5090230;28;20052;-75
2022/08/02 05:04:58;;;;;;;0.10;0.10;;;20.20;99.90;;;;;;5091228;28;20455;-75
2022/08/02 05:07:23;;;;;;;0.10;0.10;;;20.10;99.90;;;;;;5091340;28;20391;-75
2022/08/02 05:09:49;;;;;;;0.10;0.10;;;20.00;99.90;;;;;;5090069;28;20028;-75
2022/08/02 05:12:15;;;;;;;0.10;0.10;;;20.10;99.90;;;;;;5091535;28;20024;-75
2022/08/02 05:14:41;;;;;;;0.10;0.10;;;19.90;99.90;;;;;;5076793;28;20289;-75
2022/08/02 05:17:06;;;;;;;0.10;0.10;;;19.70;99.90;;;;;;5093506;28;20077;-75
2022/08/02 05:19:32;;;;;;;0.25;0.25;;;19.70;99.90;;;;;;5093572;28;20035;-75
2022/08/02 05:21:58;;;;;;;0.10;0.10;;;19.70;99.90;;;;;;5094965;28;20028;-76
2022/08/02 05:24:24;;;;;;;0.28;0.28;;;19.60;99.90;;;;;;5093452;28;20028;-75
2022/08/02 05:26:49;;;;;;;0.47;0.47;;;19.50;99.90;;;;;;5076607;28;20021;-75
2022/08/02 05:29:16;;;;;;;0.22;0.22;;;19.60;99.90;;;;;;5094670;28;20081;-75
2022/08/02 05:31:42;;;;;;;0.10;0.10;;;19.70;99.90;;;;;;5093668;28;20034;-75
2022/08/02 05:34:07;;;;;;;0.10;0.10;;;19.70;99.90;;;;;;5094772;28;20099;-75
2022/08/02 05:36:33;;;;;;;0.10;0.10;;;19.70;99.90;;;;;;5093730;28;20024;-75
2022/08/02 05:38:59;;;;;;;0.10;0.10;;;19.70;99.90;;;;;;5100953;22;20022;-77
2022/08/02 05:41:24;;;;;;;0.10;0.10;;;20.00;99.90;;;;;;5095462;28;20089;-77
2022/08/02 05:43:50;;;;;;;0.10;0.10;;;20.10;99.90;;;;;;5094761;28;20089;-77
2022/08/02 05:46:16;;;;;;;0.10;0.10;;;20.30;99.90;;;;;;5094908;28;20058;-77
2022/08/02 05:48:43;;;;;;;0.13;0.13;;;20.30;99.90;;;;;;5095181;28;20024;-75
2022/08/02 05:51:14;;;;;;;0.10;0.10;;;20.20;99.90;;;;;;5076775;28;20475;-77
2022/08/02 05:53:54;;;;;;;0.65;0.40;;;20.20;99.90;;;;;;5095606;28;20024;-77
2022/08/02 05:56:23;;;;;;;0.10;0.10;;;20.20;99.90;;;;;;5094750;28;20089;-75
2022/08/02 05:58:55;;;;;;;0.10;0.10;;;20.20;99.90;;;;;;5093056;28;20092;-76
2022/08/02 06:01:33;;;;;;;1.10;0.90;;;20.20;99.90;;;;;;5094363;28;20024;-76
2022/08/02 06:04:00;;;;;;;0.63;0.52;;;20.20;99.90;;;;;;5094682;28;20024;-76
2022/08/02 06:06:31;;;;;;;0.10;0.10;;;20.20;99.90;;;;;;5092952;28;20020;-78
2022/08/02 06:09:05;;;;;;;0.10;0.10;;;20.10;99.90;;;;;;5093190;28;20035;-77
2022/08/02 06:11:41;;;;;;;0.05;0.05;;;20.30;99.90;;;;;;5093152;28;20128;-77
2022/08/02 06:14:08;;;;;;;0.10;0.10;;;20.50;99.90;;;;;;5075902;28;20449;-78
2022/08/02 06:16:34;;;;;;;0.10;0.10;;;20.60;99.90;;;;;;5093818;28;20100;-77
2022/08/02 06:19:00;;;;;;;0.00;0.00;;;20.70;99.90;;;;;;5093767;28;20020;-77
2022/08/02 06:21:27;;;;;;;0.10;0.10;;;20.70;99.90;;;;;;5093346;28;20020;-77
2022/08/02 06:23:54;;;;;;;0.10;0.10;;;20.80;99.90;;;;;;5092157;28;20024;-77
2022/08/02 06:26:22;;;;;;;0.10;0.10;;;20.80;99.90;;;;;;5108892;28;20028;-77
2022/08/02 06:28:50;;;;;;;0.10;0.10;;;21.00;99.90;;;;;;5092453;28;20035;-77
2022/08/02 06:31:16;;;;;;;0.10;0.10;;;21.20;99.90;;;;;;5094080;28;20020;-77
2022/08/02 06:33:42;;;;;;;0.00;0.00;;;21.40;99.90;;;;;;5093346;28;20081;-77
2022/08/02 06:36:35;;;;;;;0.00;0.00;;;21.50;99.90;;;;;;5075775;28;20032;-77
2022/08/02 06:39:07;;;;;;;0.10;0.10;;;21.70;99.90;;;;;;5094294;28;20039;-78
2022/08/02 06:41:38;;;;;;;;;;;21.80;99.90;;;;;;5094341;28;20464;-78
2022/08/02 06:44:05;;;;;;;0.10;0.10;;;21.90;99.90;;;;;;5092612;28;19904;-78
2022/08/02 06:46:32;;;;;;;0.10;0.10;;;22.10;99.90;;;;;;5093797;28;20024;-78
2022/08/02 06:48:59;;;;;;;0.10;0.10;;;22.20;99.90;;;;;;5091913;28;20051;-78
2022/08/02 06:51:25;;;;;;;0.10;0.10;;;22.10;99.90;;;;;;5085574;28;20020;-77
2022/08/02 06:53:51;;;;;;;0.10;0.10;;;22.30;99.90;;;;;;5075683;28;20025;-78
2022/08/02 06:56:18;;;;;;;0.10;0.10;;;22.50;99.90;;;;;;5073616;28;20028;-77
2022/08/02 06:58:44;;;;;;;0.00;0.00;;;22.50;99.90;;;;;;5079998;28;20025;-77
2022/08/02 07:01:10;;;;;;;0.10;0.10;;;22.70;99.90;;;;;;5093599;28;20031;-77
2022/08/02 07:03:38;;;;;;;0.10;0.10;;;22.80;99.90;;;;;;5093809;28;20111;-76
2022/08/02 07:06:07;;;;;;;0.00;0.00;;;22.80;99.90;;;;;;5092299;28;20078;-76
2022/08/02 07:08:37;;;;;;;0.20;0.20;;;23.00;99.90;;;;;;5093307;28;20463;-76
2022/08/02 07:11:04;;;;;;;0.00;0.00;;;22.90;99.90;;;;;;5092815;28;20553;-76
2022/08/02 07:13:30;;;;;;;0.00;0.00;;;22.90;99.90;;;;;;5092182;28;20495;-77
2022/08/02 07:15:56;;;;;;;0.00;0.00;;;23.00;99.90;;;;;;5093011;28;20036;-78
2022/08/02 07:18:23;;;;;;;0.10;0.10;;;23.10;99.90;;;;;;5091126;28;20024;-75
2022/08/02 07:20:49;;;;;;;0.00;0.00;;;23.10;99.90;;;;;;5092951;28;20024;-75
2022/08/02 07:23:15;;;;;;;0.00;0.00;;;23.10;99.90;;;;;;5091476;28;20051;-75
2022/08/02 07:25:41;;;;;;;0.00;0.00;;;23.30;99.90;;;;;;5091902;28;20024;-75
2022/08/02 07:28:11;;;;;;;1.65;0.32;;;23.30;99.90;;;;;;5093216;28;20056;-75
2022/08/02 07:30:37;;;;;;;0.00;0.00;;;23.40;99.70;;;;;;5091843;28;20098;-75
2022/08/02 07:33:04;;;;;;;0.08;0.08;;;23.50;99.20;;;;;;5074835;28;20020;-74
2022/08/02 07:35:30;;;;;;;0.05;0.05;;;23.60;98.50;;;;;;5093143;28;20097;-75
2022/08/02 07:37:56;;;;;;;0.00;0.00;;;23.50;98.60;;;;;;5091550;28;20302;-75
2022/08/02 07:40:23;;;;;;;0.00;0.00;;;23.10;98.90;;;;;;5092496;28;20024;-75
2022/08/02 07:42:51;;;;;;;0.30;0.30;;;23.20;99.50;;;;;;5092712;28;20020;-75
2022/08/02 07:45:18;;;;;;;0.10;0.10;;;23.30;98.20;;;;;;5093003;28;20028;-75
2022/08/02 07:47:44;;;;;;;0.05;0.05;;;23.30;97.80;;;;;;5091738;28;20028;-75
2022/08/02 07:50:11;;;;;;;0.00;0.00;;;23.60;97.60;;;;;;5091932;28;20493;-75
2022/08/02 07:52:38;;;;;;;0.00;0.00;;;23.60;96.20;;;;;;5091503;28;20027;-76
2022/08/02 07:55:05;;;;;;;0.10;0.10;;;23.80;96.30;;;;;;5092541;28;20022;-76
2022/08/02 07:57:31;;;;;;;0.00;0.00;;;24.10;95.30;;;;;;5092539;28;20024;-76
2022/08/02 07:59:56;;;;;;;0.00;0.00;;;24.20;94.90;;;;;;5093172;28;20028;-76
2022/08/02 08:02:25;;;;;;;0.00;0.00;;;24.30;94.10;;;;;;5091291;28;20028;-74
2022/08/02 08:04:51;;;;;;;0.13;0.13;;;24.30;93.80;;;;;;5090928;28;20024;-76
2022/08/02 08:07:17;;;;;;;0.00;0.00;;;24.70;93.20;;;;;;5091140;28;20395;-75
2022/08/02 08:09:44;;;;;;;0.00;0.00;;;24.90;92.90;;;;;;5091105;28;20024;-76
2022/08/02 08:12:14;;;;;;;0.00;0.00;;;25.10;91.50;;;;;;5092664;28;20483;-75
2022/08/02 08:14:39;;;;;;;0.00;0.00;;;24.90;91.00;;;;;;5093272;28;20020;-75
2022/08/02 08:17:06;;;;;;;0.00;0.00;;;25.10;90.40;;;;;;5093497;28;20051;-75
2022/08/02 08:19:32;;;;;;;0.00;0.00;;;25.30;90.20;;;;;;5091640;28;20031;-75
2022/08/02 08:22:00;;;;;;;0.00;0.00;;;25.60;88.60;;;;;;5074561;28;20383;-75
2022/08/02 08:24:27;;;;;;;0.03;0.03;;;25.80;86.90;;;;;;5092175;28;20035;-75
2022/08/02 08:26:53;;;;;;;0.00;0.00;;;25.80;85.60;;;;;;5092163;28;20065;-75
2022/08/02 08:29:20;;;;;;;0.20;0.20;;;26.10;85.60;;;;;;5091645;28;20074;-75
2022/08/02 08:31:46;;;;;;;0.00;0.00;;;25.80;85.00;;;;;;5092284;28;20364;-75
2022/08/02 08:34:12;;;;;;;0.00;0.00;;;25.90;84.10;;;;;;5092525;28;20023;-76
2022/08/02 08:36:39;;;;;;;3.80;3.45;;;26.30;85.30;;;;;;5091651;28;20016;-76
2022/08/02 08:39:05;;;;;;;0.00;0.00;;;26.60;82.20;;;;;;5092318;28;20029;-77
2022/08/02 08:41:31;;;;;;;0.00;0.00;;;26.50;80.70;;;;;;5093021;28;20487;-76
2022/08/02 08:43:58;;;;;;;0.05;0.05;;;26.60;80.50;;;;;;5092875;28;20115;-76
2022/08/02 08:46:28;;;;;;;0.00;0.00;;;26.70;79.50;;;;;;5092717;28;20020;-76
2022/08/02 08:49:16;;;;;;;0.10;0.10;;;26.90;79.50;;;;;;5087086;28;20017;-77
2022/08/02 08:51:43;;;;;;;0.00;0.00;;;26.90;79.10;;;;;;5090549;28;20475;-76
2022/08/02 08:54:14;;;;;;;0.00;0.00;;;27.00;77.70;;;;;;5079901;28;20104;-76
2022/08/02 08:56:40;;;;;;;0.10;0.10;;;26.70;77.30;;;;;;5078230;28;20519;-75
2022/08/02 08:59:07;;;;;;;0.00;0.00;;;26.80;78.50;;;;;;5096197;28;20049;-76
2022/08/02 09:01:34;;;;;;;0.00;0.00;;;26.70;77.70;;;;;;5096836;28;20032;-76
2022/08/02 09:03:59;;;;;;;0.00;0.00;;;27.00;77.20;;;;;;5098157;28;20360;-77
2022/08/02 09:06:26;;;;;;;0.00;0.00;;;27.00;76.60;;;;;;5096193;28;20141;-77
2022/08/02 09:08:52;;;;;;;0.00;0.00;;;27.20;76.10;;;;;;5094447;28;20051;-71
2022/08/02 09:11:22;;;;;;;0.10;0.10;;;27.40;75.50;;;;;;5094617;28;20386;-75
2022/08/02 09:13:56;;;;;;;0.00;0.00;;;26.90;74.00;;;;;;5096115;28;20039;-75
2022/08/02 09:16:33;;;;;;;0.00;0.00;;;26.90;72.80;;;;;;5095673;28;20074;-75
2022/08/02 09:19:15;;;;;;;0.00;0.00;;;27.50;71.90;;;;;;5094847;28;20031;-74
2022/08/02 09:21:41;;;;;;;0.00;0.00;;;27.80;70.10;;;;;;5094686;28;20483;-74
2022/08/02 09:24:19;;;;;;;0.00;0.00;;;28.10;68.70;;;;;;5094519;28;20060;-74
2022/08/02 09:26:46;;;;;;;0.00;0.00;;;28.20;69.40;;;;;;5095714;28;20077;-75
2022/08/02 09:29:12;;;;;;;0.10;0.10;;;28.50;68.20;;;;;;5095389;28;20024;-75
2022/08/02 09:31:38;;;;;;;0.00;0.00;;;28.80;68.20;;;;;;5095064;28;20169;-75
2022/08/02 09:34:04;;;;;;;0.00;0.00;;;28.70;66.70;;;;;;5094493;28;20027;-75
2022/08/02 09:36:41;;;;;;;0.00;0.00;;;28.70;65.90;;;;;;5095133;28;20028;-75
2022/08/02 09:39:09;;;;;;;0.00;0.00;;;28.70;65.30;;;;;;5095628;28;20038;-74
2022/08/02 09:41:44;;;;;;;0.00;0.00;;;29.00;64.30;;;;;;5095820;28;20383;-76
2022/08/02 09:44:15;;;;;;;0.00;0.00;;;29.10;63.40;;;;;;5097259;28;20490;-75
2022/08/02 09:46:43;;;;;;;0.55;0.10;;;29.10;62.40;;;;;;5094129;28;20028;-76
2022/08/02 09:49:13;;;;;;;0.00;0.00;;;29.20;61.40;;;;;;5095061;28;20074;-76
2022/08/02 09:51:53;;;;;;;0.00;0.00;;;29.40;61.30;;;;;;5096248;28;20077;-76
2022/08/02 09:54:28;;;;;;;0.00;0.00;;;29.70;60.50;;;;;;5095182;28;20077;-74
2022/08/02 09:56:59;;;;;;;0.00;0.00;;;29.50;60.00;;;;;;5094901;28;20070;-75
2022/08/02 09:59:27;;;;;;;0.00;0.00;;;29.50;61.50;;;;;;5094492;28;20035;-76
2022/08/02 10:01:54;;;;;;;0.00;0.00;;;29.70;60.60;;;;;;5094553;28;20032;-75
2022/08/02 10:04:22;;;;;;;0.10;0.10;;;30.20;59.20;;;;;;5093098;28;20085;-75
2022/08/02 10:06:49;;;;;;;0.00;0.00;;;30.40;58.60;;;;;;5094306;28;20020;-76
2022/08/02 10:09:15;;;;;;;0.00;0.00;;;30.30;58.30;;;;;;5093003;28;20035;-75
2022/08/02 10:11:41;;;;;;;0.00;0.00;;;29.80;59.40;;;;;;5094142;28;20480;-76
2022/08/02 10:14:09;;;;;;;0.00;0.00;;;30.10;57.90;;;;;;5093110;28;20046;-76
2022/08/02 10:16:39;;;;;;;0.00;0.00;;;30.30;57.80;;;;;;5093704;28;20435;-76
2022/08/02 10:19:05;;;;;;;0.00;0.00;;;30.30;58.30;;;;;;5076345;28;20059;-74
2022/08/02 10:21:35;;;;;;;2.63;0.10;;;30.60;57.70;;;;;;5094074;28;20043;-74
2022/08/02 10:24:08;;;;;;;0.00;0.00;;;30.80;57.50;;;;;;5094132;28;20570;-73
2022/08/02 10:26:35;;;;;;;0.00;0.00;;;30.70;57.20;;;;;;5093674;28;20060;-74
2022/08/02 10:29:01;;;;;;;0.22;0.22;;;31.00;55.60;;;;;;5093892;28;20039;-74
2022/08/02 10:31:35;;;;;;;0.08;0.05;;;31.10;55.20;;;;;;5093842;28;20051;-74
2022/08/02 10:34:05;;;;;;;0.00;0.00;;;30.60;55.10;;;;;;5094322;28;20016;-74
2022/08/02 10:36:34;;;;;;;0.00;0.00;;;29.80;56.40;;;;;;5092552;28;20020;-74
2022/08/02 10:39:01;;;;;;;0.00;0.00;;;29.40;57.80;;;;;;5093942;28;20020;-74
2022/08/02 10:41:42;;;;;;;0.00;0.00;;;29.90;57.50;;;;;;5093663;28;20020;-74
2022/08/02 10:44:26;;;;;;;0.00;0.00;;;30.30;55.80;;;;;;5092133;28;20040;-74
2022/08/02 10:47:24;;;;;;;0.00;0.00;;;30.50;56.50;;;;;;5091833;28;20024;-76
2022/08/02 10:49:54;;;;;;;1.30;1.27;;;31.00;54.90;;;;;;5093390;28;20066;-74
2022/08/02 10:52:24;;;;;;;0.10;0.10;;;31.00;54.20;;;;;;5093614;28;20020;-75
2022/08/02 10:55:08;;;;;;;1.40;0.90;;;31.10;54.30;;;;;;5093570;28;20052;-75
2022/08/02 10:57:35;;;;;;;0.00;0.00;;;30.30;56.10;;;;;;5093391;28;20539;-75
2022/08/02 11:00:08;;;;;;;0.00;0.00;;;30.20;56.30;;;;;;5093507;28;20376;-75
2022/08/02 11:02:35;;;;;;;0.00;0.00;;;30.40;54.40;;;;;;5094910;28;20486;-75
2022/08/02 11:05:11;;;;;;;2.10;1.27;;;30.50;54.70;;;;;;5094883;28;20475;-75
2022/08/02 11:07:46;;;;;;;0.43;0.43;;;30.40;55.20;;;;;;5095455;28;20047;-75
2022/08/02 11:10:31;;;;;;;0.00;0.00;;;30.70;55.00;;;;;;5093683;28;20020;-76
2022/08/02 11:13:25;;;;;;;0.70;0.70;;;31.60;53.20;;;;;;5092423;22;20040;-74
2022/08/02 11:16:04;;;;;;;0.25;0.13;;;32.00;52.10;;;;;;5050004;28;20033;-73
2022/08/02 11:18:48;;;;;;;0.25;0.22;;;32.10;52.00;;;;;;5051152;28;20021;-74
2022/08/02 11:21:24;;;;;;;0.00;0.00;;;32.40;51.50;;;;;;5051397;28;20025;-75
2022/08/02 11:23:50;;;;;;;0.47;0.47;;;32.10;52.20;;;;;;5052418;28;20021;-74
2022/08/02 11:26:31;;;;;;;0.55;0.10;;;32.00;52.00;;;;;;5051017;28;20082;-75
2022/08/02 11:28:58;;;;;;;0.00;0.00;;;32.20;52.10;;;;;;5052414;28;20021;-74
2022/08/02 11:31:25;;;;;;;0.65;0.63;;;32.10;52.90;;;;;;5034577;28;20025;-74
2022/08/02 11:33:51;;;;;;;0.43;0.38;;;31.40;52.20;;;;;;5051043;28;20025;-74
2022/08/02 11:36:18;;;;;;;0.32;0.32;;;30.70;53.50;;;;;;5050966;28;20025;-73
2022/08/02 11:38:44;;;;;;;0.00;0.00;;;30.40;54.20;;;;;;5050769;28;20416;-74
2022/08/02 11:41:18;;;;;;;0.05;0.05;;;30.60;54.20;;;;;;5050990;28;20029;-74
2022/08/02 11:43:44;;;;;;;1.05;0.47;;;30.10;54.00;;;;;;5052140;28;20029;-74
2022/08/02 11:46:14;;;;;;;0.00;0.00;;;30.40;53.00;;;;;;5052137;28;20056;-74
2022/08/02 11:48:41;;;;;;;1.70;1.23;;;30.30;53.40;;;;;;5052044;28;20027;-73
2022/08/02 11:51:09;;;;;;;0.00;0.00;;;29.80;54.60;;;;;;5050979;28;20659;-74
2022/08/02 11:53:51;;;;;;;0.47;0.47;;;29.30;55.40;;;;;;5051997;28;20488;-74
2022/08/02 11:56:25;;;;;;;0.00;0.00;;;28.80;55.30;;;;;;5050870;28;20035;-74
2022/08/02 11:59:08;;;;;;;0.00;0.00;;;28.80;56.70;;;;;;5050645;28;20484;-74
2022/08/02 12:01:36;;;;;;;0.57;0.57;;;29.10;56.60;;;;;;5051958;28;20021;-73
2022/08/02 12:04:03;;;;;;;0.35;0.35;;;28.80;54.60;;;;;;5051846;28;20104;-73
2022/08/02 12:06:30;;;;;;;0.00;0.00;;;29.20;55.50;;;;;;5050384;28;20060;-74
2022/08/02 12:09:13;;;;;;;0.20;0.20;;;29.30;53.90;;;;;;5050534;28;20052;-74
2022/08/02 12:11:41;;;;;;;0.00;0.00;;;29.70;52.50;;;;;;5050581;28;20590;-74
2022/08/02 12:14:07;;;;;;;0.00;0.00;;;30.00;53.80;;;;;;5050377;28;20029;-74
2022/08/02 12:19:28;;;;;;;0.35;0.30;;;30.50;52.30;;;;;;5051748;28;20044;-73
2022/08/02 12:22:17;;;;;;;0.00;0.00;;;30.20;51.90;;;;;;5051696;28;20037;-74
2022/08/02 12:24:48;;;;;;;0.00;0.00;;;30.00;52.30;;;;;;5055766;28;20104;-74
2022/08/02 12:27:27;;;;;;;;;;;29.90;54.20;;;;;;5054734;28;20025;-74
2022/08/02 12:29:59;;;;;;;0.00;0.00;;;29.80;53.00;;;;;;5054391;28;19905;-73
2022/08/02 12:32:25;;;;;;;0.00;0.00;;;30.00;52.80;;;;;;5055773;28;20482;-74
2022/08/02 12:35:21;;;;;;;0.00;0.00;;;30.20;53.30;;;;;;5054516;28;20489;-73
2022/08/02 12:37:48;;;;;;;0.00;0.00;;;30.40;52.20;;;;;;5041746;28;20044;-73
2022/08/02 12:40:21;;;;;;;0.00;0.00;;;30.10;51.20;;;;;;5055569;28;20827;-73
2022/08/02 12:42:52;;;;;;;0.20;0.20;;;30.30;50.80;;;;;;5054349;28;20040;-73
2022/08/02 12:45:18;;;;;;;0.00;0.00;;;30.00;50.80;;;;;;5054115;28;20024;-73
2022/08/02 12:47:50;;;;;;;0.32;0.13;;;30.10;51.80;;;;;;5054093;28;20044;-73
2022/08/02 12:50:35;;;;;;;0.30;0.20;;;30.00;52.50;;;;;;5055407;28;20361;-73
2022/08/02 12:53:10;;;;;;;0.55;0.30;;;30.00;51.90;;;;;;5053956;28;20025;-73
2022/08/02 12:55:49;;;;;;;0.00;0.00;;;30.30;51.20;;;;;;5054083;28;20442;-73
2022/08/02 12:58:15;;;;;;;0.00;0.00;;;30.20;51.30;;;;;;5055596;28;20495;-73
2022/08/02 13:00:42;;;;;;;0.00;0.00;;;30.20;51.10;;;;;;5053875;28;20025;-73
2022/08/02 13:03:08;;;;;;;0.45;0.30;;;30.40;50.30;;;;;;5055162;28;20491;-73
2022/08/02 13:05:35;;;;;;;1.75;0.20;;;30.00;50.10;;;;;;5053509;28;20032;-73
2022/08/02 13:08:02;;;;;;;0.25;0.22;;;29.50;51.00;;;;;;5055033;28;20032;-73